Time;durP1;ratioP1;P1;durP2;ratioP2;P2;SDS_P1;SDS_P2;PMS_P1;PMS_P2;Temp;Humidity;BMP_temperature;BMP_pressure;BME280_temperature;BME280_humidity;BME280_pressure;Samples;Min_cycle;Max_cycle;Signal;HPM_P1;HPM_P2
2023/06/10 00:02:03;;;;;;;3.78;3.47;;;;;;;;;;5054558;28;20232;-48
2023/06/10 00:04:30;;;;;;;4.75;3.65;;;;;;;;;;5053964;28;20207;-48
2023/06/10 00:06:57;;;;;;;5.30;3.83;;;;;;;;;;5053971;28;20226;-48
2023/06/10 00:09:25;;;;;;;3.90;3.28;;;;;;;;;;5054236;28;20283;-48
2023/06/10 00:11:52;;;;;;;5.88;4.00;;;;;;;;;;5054161;28;20208;-48
2023/06/10 00:14:19;;;;;;;6.22;4.15;;;;;;;;;;5053905;28;20215;-50
2023/06/10 00:16:47;;;;;;;7.65;4.13;;;;;;;;;;5054035;28;20208;-49
2023/06/10 00:19:15;;;;;;;6.13;3.95;;;;;;;;;;5053920;28;20231;-48
2023/06/10 00:21:44;;;;;;;4.78;3.60;;;;;;;;;;5053609;28;20228;-49
2023/06/10 00:24:13;;;;;;;4.70;3.45;;;;;;;;;;5054093;28;20202;-48
2023/06/10 00:26:41;;;;;;;3.70;3.25;;;;;;;;;;5053961;28;20203;-48
2023/06/10 00:29:10;;;;;;;4.85;3.97;;;;;;;;;;5053605;28;20207;-48
2023/06/10 00:31:37;;;;;;;5.10;3.38;;;;;;;;;;5035981;28;20204;-48
2023/06/10 00:34:08;;;;;;;4.97;3.72;;;;;;;;;;5053430;28;20294;-49
2023/06/10 00:36:36;;;;;;;6.05;4.07;;;;;;;;;;5054098;28;20266;-49
2023/06/10 00:39:04;;;;;;;4.15;3.55;;;;;;;;;;5053413;28;20687;-48
2023/06/10 00:41:33;;;;;;;4.18;3.50;;;;;;;;;;5035923;28;20228;-49
2023/06/10 00:44:01;;;;;;;4.13;3.60;;;;;;;;;;5053563;28;20236;-48
2023/06/10 00:46:28;;;;;;;4.53;3.97;;;;;;;;;;5053423;28;20203;-48
2023/06/10 00:48:55;;;;;;;4.40;3.45;;;;;;;;;;5053773;28;20199;-48
2023/06/10 00:51:22;;;;;;;4.72;3.70;;;;;;;;;;5035781;28;20211;-48
2023/06/10 00:53:49;;;;;;;4.85;3.65;;;;;;;;;;5053342;28;20207;-48
2023/06/10 00:56:17;;;;;;;4.43;3.42;;;;;;;;;;5035854;28;20211;-48
2023/06/10 00:58:44;;;;;;;3.90;3.08;;;;;;;;;;5019240;28;20204;-48
2023/06/10 01:01:12;;;;;;;5.15;3.65;;;;;;;;;;5035638;28;20713;-49
2023/06/10 01:03:39;;;;;;;3.97;2.90;;;;;;;;;;5053432;28;20210;-49
2023/06/10 01:06:33;;;;;;;4.15;3.20;;;;;;;;;;5053365;28;20200;-48
2023/06/10 01:09:09;;;;;;;4.80;3.28;;;;;;;;;;4990763;28;20204;-49
2023/06/10 01:12:00;;;;;;;6.35;3.60;;;;;;;;;;5035659;28;20204;-48
2023/06/10 01:14:27;;;;;;;4.38;3.28;;;;;;;;;;5036121;28;20233;-48
2023/06/10 01:16:54;;;;;;;3.78;3.28;;;;;;;;;;5056786;28;20203;-48
2023/06/10 01:19:24;;;;;;;4.40;3.50;;;;;;;;;;5039643;28;20204;-50
2023/06/10 01:21:51;;;;;;;4.60;3.40;;;;;;;;;;5057053;28;20228;-49
2023/06/10 01:24:19;;;;;;;4.85;3.47;;;;;;;;;;5039716;28;20257;-48
2023/06/10 01:26:49;;;;;;;4.90;3.08;;;;;;;;;;5039222;28;20573;-48
2023/06/10 01:29:30;;;;;;;4.60;3.53;;;;;;;;;;5023540;28;20191;-50
2023/06/10 01:32:08;;;;;;;4.88;3.50;;;;;;;;;;5023071;28;20207;-48
2023/06/10 01:34:35;;;;;;;4.72;3.55;;;;;;;;;;5039277;28;20203;-48
2023/06/10 01:37:03;;;;;;;4.35;3.85;;;;;;;;;;5039361;28;20204;-48
2023/06/10 01:39:32;;;;;;;4.50;3.75;;;;;;;;;;5039308;28;20208;-50
2023/06/10 01:41:59;;;;;;;5.13;4.25;;;;;;;;;;5039099;28;20224;-48
2023/06/10 01:44:26;;;;;;;6.50;4.05;;;;;;;;;;5022498;28;20236;-49
2023/06/10 01:46:54;;;;;;;6.85;4.65;;;;;;;;;;5038754;28;20229;-49
2023/06/10 01:49:23;;;;;;;5.93;4.20;;;;;;;;;;5056941;28;20207;-48
2023/06/10 01:51:51;;;;;;;4.13;3.70;;;;;;;;;;5056541;28;20200;-49
2023/06/10 01:54:18;;;;;;;5.57;4.55;;;;;;;;;;5056622;28;20207;-48
2023/06/10 01:56:46;;;;;;;5.22;4.32;;;;;;;;;;5038624;28;20204;-51
2023/06/10 01:59:13;;;;;;;5.43;4.60;;;;;;;;;;5038493;28;20282;-49
2023/06/10 02:01:40;;;;;;;5.57;4.47;;;;;;;;;;5038353;28;20293;-48
2023/06/10 02:04:09;;;;;;;5.88;4.68;;;;;;;;;;5056320;28;20196;-48
2023/06/10 02:06:37;;;;;;;5.45;4.45;;;;;;;;;;5056268;28;20188;-49
2023/06/10 02:09:04;;;;;;;6.38;4.65;;;;;;;;;;5038314;28;20204;-49
2023/06/10 02:11:31;;;;;;;4.97;4.47;;;;;;;;;;5056104;28;20204;-49
2023/06/10 02:13:59;;;;;;;6.53;4.70;;;;;;;;;;5038464;28;20204;-49
2023/06/10 02:16:26;;;;;;;5.53;4.25;;;;;;;;;;5054860;28;20204;-48
2023/06/10 02:18:54;;;;;;;5.32;4.80;;;;;;;;;;5053917;28;20214;-49
2023/06/10 02:21:22;;;;;;;6.35;4.55;;;;;;;;;;5036258;28;20224;-48
2023/06/10 02:23:49;;;;;;;5.97;4.90;;;;;;;;;;5037847;28;20236;-48
2023/06/10 02:26:16;;;;;;;6.13;4.55;;;;;;;;;;5037469;28;20715;-49
2023/06/10 02:28:43;;;;;;;5.47;4.57;;;;;;;;;;5054746;28;20207;-50
2023/06/10 02:31:13;;;;;;;6.65;4.60;;;;;;;;;;5037873;28;20216;-49
2023/06/10 02:33:40;;;;;;;5.72;4.20;;;;;;;;;;5038149;28;20223;-49
2023/06/10 02:36:08;;;;;;;4.88;3.80;;;;;;;;;;5038027;28;20231;-49
2023/06/10 02:38:35;;;;;;;4.97;3.70;;;;;;;;;;5055391;28;20200;-49
2023/06/10 02:41:02;;;;;;;4.05;3.40;;;;;;;;;;5037878;28;20281;-48
2023/06/10 02:43:29;;;;;;;5.30;3.65;;;;;;;;;;5037610;28;20266;-48
2023/06/10 02:45:57;;;;;;;4.20;3.17;;;;;;;;;;5037676;28;20243;-49
2023/06/10 02:48:24;;;;;;;3.72;3.03;;;;;;;;;;5055275;28;20212;-49
2023/06/10 02:50:52;;;;;;;5.10;3.80;;;;;;;;;;5055182;28;20207;-49
2023/06/10 02:53:26;;;;;;;3.67;3.28;;;;;;;;;;5037649;28;20310;-48
2023/06/10 02:56:00;;;;;;;5.07;3.88;;;;;;;;;;5038362;28;20172;-48
2023/06/10 02:58:27;;;;;;;4.90;3.45;;;;;;;;;;5037808;28;20291;-48
2023/06/10 03:00:56;;;;;;;6.43;3.65;;;;;;;;;;5037738;28;20204;-50
2023/06/10 03:03:24;;;;;;;5.15;4.00;;;;;;;;;;5037361;28;20611;-50
2023/06/10 03:06:02;;;;;;;5.40;3.78;;;;;;;;;;5037670;28;20207;-49
2023/06/10 03:08:30;;;;;;;4.20;3.10;;;;;;;;;;5037606;28;20204;-50
2023/06/10 03:11:01;;;;;;;4.88;3.20;;;;;;;;;;5037878;28;20204;-49
2023/06/10 03:13:30;;;;;;;4.30;3.47;;;;;;;;;;5037551;28;20200;-48
2023/06/10 03:15:57;;;;;;;6.60;3.22;;;;;;;;;;5037573;28;20202;-49
2023/06/10 03:18:26;;;;;;;5.50;3.72;;;;;;;;;;5037207;28;20677;-49
2023/06/10 03:20:54;;;;;;;4.18;3.35;;;;;;;;;;5054868;28;20206;-49
2023/06/10 03:23:23;;;;;;;4.45;3.05;;;;;;;;;;5021072;28;20199;-49
2023/06/10 03:25:51;;;;;;;5.55;2.97;;;;;;;;;;5037461;28;20200;-49
2023/06/10 03:28:19;;;;;;;4.70;3.42;;;;;;;;;;5037605;28;20258;-49
2023/06/10 03:30:48;;;;;;;3.47;3.05;;;;;;;;;;5054977;28;20262;-48
2023/06/10 03:33:15;;;;;;;4.00;2.72;;;;;;;;;;5036740;28;20206;-48
2023/06/10 03:35:44;;;;;;;2.92;2.60;;;;;;;;;;5037190;28;20266;-48
2023/06/10 03:38:13;;;;;;;3.38;2.60;;;;;;;;;;5036813;28;20228;-48
2023/06/10 03:40:40;;;;;;;4.43;2.80;;;;;;;;;;5037386;28;20212;-48
2023/06/10 03:43:07;;;;;;;2.92;2.42;;;;;;;;;;5036673;28;20700;-48
2023/06/10 03:45:36;;;;;;;4.00;2.97;;;;;;;;;;5020500;28;20589;-48
2023/06/10 03:48:04;;;;;;;5.10;3.10;;;;;;;;;;5036832;28;20200;-49
2023/06/10 03:50:41;;;;;;;3.30;2.70;;;;;;;;;;5037067;28;20582;-48
2023/06/10 03:53:08;;;;;;;3.38;2.75;;;;;;;;;;5054590;28;20295;-48
2023/06/10 03:55:37;;;;;;;3.20;2.88;;;;;;;;;;5036901;28;20214;-50
2023/06/10 03:58:04;;;;;;;3.65;2.95;;;;;;;;;;5036615;28;20203;-48
2023/06/10 04:00:40;;;;;;;3.85;2.55;;;;;;;;;;5054184;28;20204;-49
2023/06/10 04:03:15;;;;;;;3.70;2.55;;;;;;;;;;5054473;28;20224;-48
2023/06/10 04:05:52;;;;;;;2.97;2.47;;;;;;;;;;5036876;28;20275;-49
2023/06/10 04:08:20;;;;;;;3.17;2.40;;;;;;;;;;5036530;28;20682;-48
2023/06/10 04:10:47;;;;;;;2.30;2.10;;;;;;;;;;5036240;28;20204;-48
2023/06/10 04:13:15;;;;;;;3.92;1.95;;;;;;;;;;5036127;28;20204;-48
2023/06/10 04:15:51;;;;;;;2.13;1.90;;;;;;;;;;5036229;28;20191;-49
2023/06/10 04:18:21;;;;;;;2.15;1.85;;;;;;;;;;5036123;28;20200;-48
2023/06/10 04:20:49;;;;;;;2.47;1.70;;;;;;;;;;5036187;28;20211;-49
2023/06/10 04:23:17;;;;;;;1.45;1.35;;;;;;;;;;5036148;28;20247;-48
2023/06/10 04:25:46;;;;;;;2.25;1.67;;;;;;;;;;5036333;28;20207;-49
2023/06/10 04:28:14;;;;;;;2.47;2.10;;;;;;;;;;5035975;28;20210;-48
2023/06/10 04:30:42;;;;;;;2.28;1.80;;;;;;;;;;5036113;28;20257;-48
2023/06/10 04:33:10;;;;;;;2.38;1.50;;;;;;;;;;5036116;28;20204;-48
2023/06/10 04:35:39;;;;;;;2.08;1.67;;;;;;;;;;5035808;28;20610;-49
2023/06/10 04:38:08;;;;;;;3.03;2.30;;;;;;;;;;5036023;28;20273;-49
2023/06/10 04:40:36;;;;;;;2.53;1.95;;;;;;;;;;5035778;28;20739;-49
2023/06/10 04:43:03;;;;;;;2.85;2.42;;;;;;;;;;5035593;28;20224;-48
2023/06/10 04:45:33;;;;;;;3.10;2.33;;;;;;;;;;5035687;28;20231;-48
2023/06/10 04:48:01;;;;;;;3.05;2.63;;;;;;;;;;5035882;28;20204;-49
2023/06/10 04:50:28;;;;;;;3.38;2.40;;;;;;;;;;5035285;28;20661;-48
2023/06/10 04:52:57;;;;;;;2.42;2.10;;;;;;;;;;5053339;28;20212;-50
2023/06/10 04:55:25;;;;;;;3.10;2.10;;;;;;;;;;5035538;28;20204;-48
2023/06/10 04:57:52;;;;;;;3.30;2.55;;;;;;;;;;5053268;28;20207;-49
2023/06/10 05:00:20;;;;;;;3.10;2.20;;;;;;;;;;5053326;28;20211;-49
2023/06/10 05:02:49;;;;;;;2.67;2.30;;;;;;;;;;5053120;28;20254;-50
2023/06/10 05:05:17;;;;;;;2.30;2.10;;;;;;;;;;5053434;28;20203;-49
2023/06/10 05:07:45;;;;;;;2.40;2.10;;;;;;;;;;5053451;28;20208;-49
2023/06/10 05:10:13;;;;;;;3.72;2.30;;;;;;;;;;5053238;28;20225;-48
2023/06/10 05:12:40;;;;;;;2.72;2.28;;;;;;;;;;5053093;28;20652;-49
2023/06/10 05:15:08;;;;;;;2.35;1.95;;;;;;;;;;5053162;28;20207;-49
2023/06/10 05:17:36;;;;;;;2.03;1.65;;;;;;;;;;5053150;28;20238;-48
2023/06/10 05:20:04;;;;;;;1.70;1.60;;;;;;;;;;5053331;28;20204;-48
2023/06/10 05:22:31;;;;;;;3.05;1.60;;;;;;;;;;5053284;28;20290;-48
2023/06/10 05:24:58;;;;;;;1.50;1.40;;;;;;;;;;5052950;28;20200;-48
2023/06/10 05:27:25;;;;;;;2.28;1.70;;;;;;;;;;5053072;28;20208;-48
2023/06/10 05:29:53;;;;;;;1.90;1.48;;;;;;;;;;5053241;28;20548;-48
2023/06/10 05:32:20;;;;;;;2.35;1.88;;;;;;;;;;5053186;28;20235;-48
2023/06/10 05:34:47;;;;;;;2.53;1.90;;;;;;;;;;5053099;28;20204;-49
2023/06/10 05:37:14;;;;;;;1.90;1.58;;;;;;;;;;5053090;28;20258;-48
2023/06/10 05:39:42;;;;;;;2.47;2.10;;;;;;;;;;5053262;28;20212;-48
2023/06/10 05:42:09;;;;;;;3.35;2.70;;;;;;;;;;5052874;28;20223;-48
2023/06/10 05:44:36;;;;;;;4.22;2.72;;;;;;;;;;5052914;28;20240;-48
2023/06/10 05:47:04;;;;;;;2.97;2.30;;;;;;;;;;5053015;28;20223;-48
2023/06/10 05:49:31;;;;;;;2.67;2.47;;;;;;;;;;5052792;28;20677;-48
2023/06/10 05:51:58;;;;;;;3.13;2.60;;;;;;;;;;5053015;28;20210;-49
2023/06/10 05:54:26;;;;;;;3.30;2.88;;;;;;;;;;5052874;28;20204;-47
2023/06/10 05:56:56;;;;;;;3.78;3.00;;;;;;;;;;5052689;28;20204;-48
2023/06/10 05:59:23;;;;;;;3.08;2.33;;;;;;;;;;5035364;28;20212;-48
2023/06/10 06:01:50;;;;;;;3.25;2.67;;;;;;;;;;5055129;28;20270;-48
2023/06/10 06:04:17;;;;;;;3.70;3.25;;;;;;;;;;5056577;28;20261;-48
2023/06/10 06:06:44;;;;;;;4.65;3.47;;;;;;;;;;5056514;28;20250;-49
2023/06/10 06:09:12;;;;;;;3.75;2.85;;;;;;;;;;5056214;28;20672;-48
2023/06/10 06:11:39;;;;;;;3.90;2.97;;;;;;;;;;5056227;28;20235;-49
2023/06/10 06:14:07;;;;;;;4.07;3.35;;;;;;;;;;5056479;28;20224;-48
2023/06/10 06:16:34;;;;;;;4.35;3.50;;;;;;;;;;5056152;28;20287;-48
2023/06/10 06:19:01;;;;;;;4.32;3.00;;;;;;;;;;5056477;28;20297;-48
2023/06/10 06:21:28;;;;;;;3.92;2.90;;;;;;;;;;5056266;28;20234;-49
2023/06/10 06:23:56;;;;;;;3.97;2.80;;;;;;;;;;5056180;28;20235;-48
2023/06/10 06:26:23;;;;;;;2.65;2.40;;;;;;;;;;5038401;28;20199;-50
2023/06/10 06:28:50;;;;;;;3.42;2.63;;;;;;;;;;5056060;28;20204;-48
2023/06/10 06:31:17;;;;;;;3.92;3.17;;;;;;;;;;5056153;28;20208;-48
2023/06/10 06:33:45;;;;;;;3.90;2.97;;;;;;;;;;5056016;28;20208;-49
2023/06/10 06:36:12;;;;;;;5.05;3.33;;;;;;;;;;5055900;28;20290;-49
2023/06/10 06:38:39;;;;;;;4.05;3.33;;;;;;;;;;5056193;28;20262;-48
2023/06/10 06:41:06;;;;;;;4.18;3.67;;;;;;;;;;5038171;28;20295;-50
2023/06/10 06:43:34;;;;;;;4.05;3.55;;;;;;;;;;5037880;28;20594;-48
2023/06/10 06:46:28;;;;;;;4.70;3.63;;;;;;;;;;5024818;28;20196;-48
2023/06/10 06:48:55;;;;;;;5.65;4.00;;;;;;;;;;5055448;28;20266;-48
2023/06/10 06:51:22;;;;;;;5.85;4.63;;;;;;;;;;5055482;28;20661;-48
2023/06/10 06:53:51;;;;;;;4.93;4.22;;;;;;;;;;5055669;28;20673;-48
2023/06/10 06:56:18;;;;;;;6.20;4.78;;;;;;;;;;5055447;28;20208;-49
2023/06/10 06:58:45;;;;;;;10.02;6.60;;;;;;;;;;5055525;28;20262;-48
2023/06/10 07:01:12;;;;;;;9.23;6.80;;;;;;;;;;5055468;28;20200;-48
2023/06/10 07:03:39;;;;;;;8.73;6.93;;;;;;;;;;5055082;28;20719;-47
2023/06/10 07:06:06;;;;;;;10.45;7.60;;;;;;;;;;5055486;28;20283;-48
2023/06/10 07:08:34;;;;;;;9.93;7.72;;;;;;;;;;5055156;28;20207;-48
2023/06/10 07:11:01;;;;;;;10.48;8.40;;;;;;;;;;5055303;28;20287;-48
2023/06/10 07:13:28;;;;;;;10.70;8.25;;;;;;;;;;5054376;28;20230;-48
2023/06/10 07:15:55;;;;;;;10.90;8.65;;;;;;;;;;5055341;28;20550;-48
2023/06/10 07:18:22;;;;;;;10.10;8.20;;;;;;;;;;5054948;28;20226;-48
2023/06/10 07:20:49;;;;;;;13.63;7.88;;;;;;;;;;5055299;28;20207;-48
2023/06/10 07:23:17;;;;;;;10.40;7.38;;;;;;;;;;5037378;28;20216;-48
2023/06/10 07:25:44;;;;;;;9.73;7.88;;;;;;;;;;5054880;28;20204;-48
2023/06/10 07:28:11;;;;;;;11.13;8.60;;;;;;;;;;5037337;28;20212;-49
2023/06/10 07:30:39;;;;;;;10.65;8.27;;;;;;;;;;5055102;28;20556;-48
2023/06/10 07:33:07;;;;;;;10.77;7.78;;;;;;;;;;5055066;28;20214;-49
2023/06/10 07:35:34;;;;;;;9.70;8.20;;;;;;;;;;5054645;28;20211;-49
2023/06/10 07:38:02;;;;;;;11.32;7.43;;;;;;;;;;5054742;28;20207;-48
2023/06/10 07:40:29;;;;;;;11.30;8.38;;;;;;;;;;5054797;28;20200;-48
2023/06/10 07:43:00;;;;;;;10.80;7.93;;;;;;;;;;5054743;28;20228;-48
2023/06/10 07:45:27;;;;;;;11.85;8.75;;;;;;;;;;5054832;28;20230;-48
2023/06/10 07:47:55;;;;;;;10.02;7.97;;;;;;;;;;5054898;28;20258;-49
2023/06/10 07:50:22;;;;;;;9.70;7.88;;;;;;;;;;5054565;28;20204;-48
2023/06/10 07:52:50;;;;;;;10.73;8.00;;;;;;;;;;5054497;28;20219;-49
2023/06/10 07:55:17;;;;;;;10.65;8.10;;;;;;;;;;5054362;28;20258;-50
2023/06/10 07:57:44;;;;;;;9.70;7.25;;;;;;;;;;5054321;28;20203;-48
2023/06/10 08:00:11;;;;;;;11.25;7.60;;;;;;;;;;5054584;28;20298;-49
2023/06/10 08:02:39;;;;;;;10.60;8.27;;;;;;;;;;5054023;28;20227;-48
2023/06/10 08:05:07;;;;;;;9.50;7.18;;;;;;;;;;5054116;28;20651;-48
2023/06/10 08:07:35;;;;;;;10.70;8.18;;;;;;;;;;5053997;28;20673;-50
2023/06/10 08:10:03;;;;;;;10.57;7.68;;;;;;;;;;5053873;28;20200;-48
2023/06/10 08:12:32;;;;;;;10.35;7.63;;;;;;;;;;5053884;28;20687;-48
2023/06/10 08:14:59;;;;;;;9.80;7.53;;;;;;;;;;5053940;28;20240;-47
2023/06/10 08:17:27;;;;;;;9.02;5.90;;;;;;;;;;5054253;28;20211;-47
2023/06/10 08:19:54;;;;;;;9.70;7.00;;;;;;;;;;5053972;28;20210;-48
2023/06/10 08:22:21;;;;;;;7.53;6.25;;;;;;;;;;5053719;28;20262;-47
2023/06/10 08:24:48;;;;;;;8.98;5.75;;;;;;;;;;5053009;28;20287;-47
2023/06/10 08:27:16;;;;;;;7.15;5.43;;;;;;;;;;5053923;28;20223;-48
2023/06/10 08:29:43;;;;;;;5.93;4.50;;;;;;;;;;5053919;28;20287;-47
2023/06/10 08:32:10;;;;;;;5.90;4.60;;;;;;;;;;5053840;28;20215;-48
2023/06/10 08:34:37;;;;;;;5.25;4.50;;;;;;;;;;5053698;28;20760;-47
2023/06/10 08:37:05;;;;;;;5.53;3.95;;;;;;;;;;5053580;28;20208;-47
2023/06/10 08:39:32;;;;;;;5.93;4.63;;;;;;;;;;5053443;28;20578;-47
2023/06/10 08:42:22;;;;;;;6.13;4.20;;;;;;;;;;5053483;28;20585;-47
2023/06/10 08:44:54;;;;;;;6.85;5.28;;;;;;;;;;5035875;28;20282;-48
2023/06/10 08:47:24;;;;;;;6.15;4.75;;;;;;;;;;5053466;28;20200;-48
2023/06/10 08:49:56;;;;;;;5.22;4.38;;;;;;;;;;5053286;28;20203;-47
2023/06/10 08:52:26;;;;;;;4.95;4.15;;;;;;;;;;5035707;28;20719;-48
2023/06/10 08:54:59;;;;;;;6.13;4.40;;;;;;;;;;5035709;28;20206;-48
2023/06/10 08:57:27;;;;;;;4.97;4.47;;;;;;;;;;5053920;28;20283;-48
2023/06/10 08:59:56;;;;;;;5.57;4.40;;;;;;;;;;5053192;28;20204;-48
2023/06/10 09:02:24;;;;;;;5.30;4.10;;;;;;;;;;5053416;28;20200;-49
2023/06/10 09:04:52;;;;;;;4.63;3.92;;;;;;;;;;5053154;28;20555;-48
2023/06/10 09:07:19;;;;;;;5.15;4.53;;;;;;;;;;5053417;28;20210;-49
2023/06/10 09:09:46;;;;;;;4.50;4.10;;;;;;;;;;5053614;28;20200;-48
2023/06/10 09:12:14;;;;;;;5.50;3.97;;;;;;;;;;5035815;28;20208;-48
2023/06/10 09:14:42;;;;;;;7.40;3.53;;;;;;;;;;5053119;28;20210;-48
2023/06/10 09:17:10;;;;;;;4.10;3.33;;;;;;;;;;5053009;28;20299;-48
2023/06/10 09:19:38;;;;;;;4.00;3.30;;;;;;;;;;5053431;28;20291;-51
2023/06/10 09:22:06;;;;;;;3.58;3.17;;;;;;;;;;5035562;28;20204;-49
2023/06/10 09:24:33;;;;;;;3.60;3.22;;;;;;;;;;5053327;28;20228;-49
2023/06/10 09:27:06;;;;;;;3.95;3.28;;;;;;;;;;5053175;28;20200;-48
2023/06/10 09:29:51;;;;;;;3.58;2.80;;;;;;;;;;5053053;28;20204;-49
2023/06/10 09:32:20;;;;;;;3.60;2.85;;;;;;;;;;5053026;28;20200;-49
2023/06/10 09:34:47;;;;;;;3.17;2.72;;;;;;;;;;5053512;28;20208;-50
2023/06/10 09:37:22;;;;;;;4.28;3.47;;;;;;;;;;5055564;28;20207;-49
2023/06/10 09:40:06;;;;;;;4.43;3.30;;;;;;;;;;5057000;28;20227;-48
2023/06/10 09:42:38;;;;;;;3.03;2.72;;;;;;;;;;5057075;28;20572;-49
2023/06/10 09:45:07;;;;;;;3.92;3.35;;;;;;;;;;5056809;28;20234;-48
2023/06/10 09:47:34;;;;;;;5.32;3.55;;;;;;;;;;5039483;28;20207;-48
2023/06/10 09:50:01;;;;;;;4.35;3.15;;;;;;;;;;5056754;28;20239;-48
2023/06/10 09:52:29;;;;;;;3.80;2.65;;;;;;;;;;5056631;28;20207;-48
2023/06/10 09:55:01;;;;;;;5.60;4.70;;;;;;;;;;5056724;28;20208;-48
2023/06/10 09:57:33;;;;;;;5.90;4.72;;;;;;;;;;5056530;28;20204;-49
2023/06/10 10:00:07;;;;;;;5.80;4.68;;;;;;;;;;5056726;28;20208;-49
2023/06/10 10:02:53;;;;;;;6.28;4.50;;;;;;;;;;5056484;28;20226;-48
2023/06/10 10:05:22;;;;;;;5.45;4.35;;;;;;;;;;5038937;28;20211;-49
2023/06/10 10:07:50;;;;;;;5.50;4.63;;;;;;;;;;5055980;28;20547;-49
2023/06/10 10:10:19;;;;;;;6.85;5.00;;;;;;;;;;5056532;28;20270;-48
2023/06/10 10:12:48;;;;;;;7.72;5.13;;;;;;;;;;5056546;28;20227;-48
2023/06/10 10:15:17;;;;;;;8.40;5.35;;;;;;;;;;5056109;28;20199;-48
2023/06/10 10:18:00;;;;;;;7.75;5.63;;;;;;;;;;5056413;28;20207;-48
2023/06/10 10:20:29;;;;;;;6.35;5.00;;;;;;;;;;5056219;28;20660;-48
2023/06/10 10:22:57;;;;;;;8.32;6.20;;;;;;;;;;5038525;28;20212;-48
2023/06/10 10:25:51;;;;;;;9.07;5.78;;;;;;;;;;5056212;28;20200;-48
2023/06/10 10:28:21;;;;;;;6.63;5.10;;;;;;;;;;5035299;28;20204;-49
2023/06/10 10:30:54;;;;;;;5.95;4.75;;;;;;;;;;5020747;28;20274;-48
2023/06/10 10:33:40;;;;;;;7.10;5.18;;;;;;;;;;5018614;28;20245;-47
2023/06/10 10:36:08;;;;;;;6.85;4.90;;;;;;;;;;5035858;28;20209;-49
2023/06/10 10:38:35;;;;;;;6.50;4.85;;;;;;;;;;5035839;28;20666;-48
2023/06/10 10:41:04;;;;;;;5.82;5.07;;;;;;;;;;5036090;28;20571;-48
2023/06/10 10:43:32;;;;;;;6.97;5.22;;;;;;;;;;5018260;28;20773;-48
2023/06/10 10:46:00;;;;;;;7.13;5.55;;;;;;;;;;5018207;28;20233;-48
2023/06/10 10:48:35;;;;;;;7.88;6.07;;;;;;;;;;5034798;28;20224;-48
2023/06/10 10:51:02;;;;;;;8.07;6.38;;;;;;;;;;5035919;28;20279;-48
2023/06/10 10:53:30;;;;;;;9.10;5.80;;;;;;;;;;5035948;28;20201;-48
2023/06/10 10:56:04;;;;;;;6.35;5.35;;;;;;;;;;5035495;28;20239;-49
2023/06/10 10:58:32;;;;;;;11.07;6.90;;;;;;;;;;5035815;28;20192;-48
2023/06/10 11:00:59;;;;;;;7.32;6.05;;;;;;;;;;5035355;28;20205;-48
2023/06/10 11:03:32;;;;;;;7.07;5.32;;;;;;;;;;5035109;28;20576;-49
2023/06/10 11:06:00;;;;;;;5.38;4.80;;;;;;;;;;5035323;28;20661;-48
2023/06/10 11:08:33;;;;;;;6.22;5.10;;;;;;;;;;5035170;28;20287;-50
2023/06/10 11:11:00;;;;;;;5.90;4.78;;;;;;;;;;5034596;28;20200;-47
2023/06/10 11:13:27;;;;;;;5.88;4.90;;;;;;;;;;5035240;28;20205;-48
2023/06/10 11:15:58;;;;;;;9.95;5.57;;;;;;;;;;5034419;28;20271;-47
2023/06/10 11:18:31;;;;;;;5.95;4.68;;;;;;;;;;5035325;28;20204;-47
2023/06/10 11:21:01;;;;;;;7.22;5.57;;;;;;;;;;5035123;28;20296;-48
2023/06/10 11:23:28;;;;;;;9.32;6.38;;;;;;;;;;5035312;28;20228;-48
2023/06/10 11:26:15;;;;;;;7.95;5.82;;;;;;;;;;5035005;28;20205;-47
2023/06/10 11:29:04;;;;;;;7.00;5.35;;;;;;;;;;5034994;28;20563;-47
2023/06/10 11:31:38;;;;;;;7.93;6.03;;;;;;;;;;5035434;28;20212;-47
2023/06/10 11:34:07;;;;;;;9.00;6.38;;;;;;;;;;5034976;28;20205;-47
2023/06/10 11:36:40;;;;;;;7.78;6.15;;;;;;;;;;5034756;28;20205;-47
2023/06/10 11:39:07;;;;;;;8.32;6.10;;;;;;;;;;5034831;28;20185;-47
2023/06/10 11:41:36;;;;;;;9.05;6.25;;;;;;;;;;5034895;28;20207;-48
2023/06/10 11:44:07;;;;;;;7.65;6.82;;;;;;;;;;5017138;28;20251;-48
2023/06/10 11:46:34;;;;;;;10.27;6.68;;;;;;;;;;5035112;28;20208;-48
2023/06/10 11:49:02;;;;;;;9.75;6.80;;;;;;;;;;5034781;28;20205;-48
2023/06/10 11:51:38;;;;;;;7.93;6.63;;;;;;;;;;5034676;28;20201;-49
2023/06/10 11:54:09;;;;;;;9.48;7.10;;;;;;;;;;5034699;28;20208;-48
2023/06/10 11:56:36;;;;;;;8.88;6.93;;;;;;;;;;5034593;28;20204;-48
2023/06/10 11:59:06;;;;;;;9.00;7.63;;;;;;;;;;5034147;28;20208;-49
2023/06/10 12:01:42;;;;;;;9.20;6.78;;;;;;;;;;5034317;28;20733;-48
2023/06/10 12:04:15;;;;;;;8.27;6.78;;;;;;;;;;5034412;28;20243;-48
2023/06/10 12:06:48;;;;;;;9.00;6.30;;;;;;;;;;5034227;28;20235;-49
2023/06/10 12:09:27;;;;;;;8.55;6.97;;;;;;;;;;5034108;28;20636;-49
2023/06/10 12:12:07;;;;;;;8.35;5.95;;;;;;;;;;5034072;28;20203;-47
2023/06/10 12:14:56;;;;;;;9.48;7.53;;;;;;;;;;5034648;28;20199;-48
2023/06/10 12:17:34;;;;;;;8.77;6.40;;;;;;;;;;5034074;28;20212;-48
2023/06/10 12:20:07;;;;;;;8.75;6.60;;;;;;;;;;5034186;28;20235;-48
2023/06/10 12:22:37;;;;;;;8.82;6.47;;;;;;;;;;5034024;28;20207;-48
2023/06/10 12:25:06;;;;;;;10.05;7.07;;;;;;;;;;5034187;28;20232;-49
2023/06/10 12:27:35;;;;;;;9.32;7.20;;;;;;;;;;5034347;28;20219;-47
2023/06/10 12:30:05;;;;;;;9.18;6.22;;;;;;;;;;5033821;28;20209;-48
2023/06/10 12:32:43;;;;;;;11.85;6.75;;;;;;;;;;5033744;28;20197;-49
2023/06/10 12:35:12;;;;;;;7.57;6.03;;;;;;;;;;5033722;28;20231;-48
2023/06/10 12:37:41;;;;;;;9.00;6.40;;;;;;;;;;5033630;28;20661;-48
2023/06/10 12:40:10;;;;;;;7.30;5.82;;;;;;;;;;5033733;28;20209;-47
2023/06/10 12:42:38;;;;;;;7.38;6.38;;;;;;;;;;5033791;28;20197;-48
2023/06/10 12:45:08;;;;;;;8.77;6.40;;;;;;;;;;5033943;28;20254;-48
2023/06/10 12:47:41;;;;;;;7.95;6.22;;;;;;;;;;5033608;28;20646;-48
2023/06/10 12:50:09;;;;;;;9.15;6.55;;;;;;;;;;5033931;28;20275;-48
2023/06/10 12:52:36;;;;;;;8.18;6.50;;;;;;;;;;5033703;28;20215;-48
2023/06/10 12:55:04;;;;;;;7.85;6.38;;;;;;;;;;5033836;28;20281;-48
2023/06/10 12:57:31;;;;;;;10.13;7.22;;;;;;;;;;5033648;28;20211;-48
2023/06/10 13:00:03;;;;;;;8.38;6.57;;;;;;;;;;5033368;28;20658;-48
2023/06/10 13:02:31;;;;;;;7.47;6.20;;;;;;;;;;5033379;28;20196;-48
2023/06/10 13:04:59;;;;;;;8.05;6.25;;;;;;;;;;4999334;28;20228;-48
2023/06/10 13:07:26;;;;;;;6.25;5.55;;;;;;;;;;5033546;28;20201;-48
2023/06/10 13:09:54;;;;;;;8.27;6.13;;;;;;;;;;5033716;28;20200;-48
2023/06/10 13:12:21;;;;;;;6.72;5.45;;;;;;;;;;5038861;28;20204;-48
2023/06/10 13:15:04;;;;;;;6.72;5.53;;;;;;;;;;5040178;28;20204;-49
2023/06/10 13:17:34;;;;;;;7.55;5.90;;;;;;;;;;5039764;28;20200;-49
2023/06/10 13:20:05;;;;;;;6.70;5.18;;;;;;;;;;5040108;28;20197;-48
2023/06/10 13:22:34;;;;;;;7.10;5.28;;;;;;;;;;5040047;28;20215;-49
2023/06/10 13:25:03;;;;;;;5.57;4.70;;;;;;;;;;5039862;28;20232;-49
2023/06/10 13:27:30;;;;;;;6.07;4.82;;;;;;;;;;5039982;28;20569;-48
2023/06/10 13:29:58;;;;;;;6.95;4.45;;;;;;;;;;5039848;28;20204;-50
2023/06/10 13:32:25;;;;;;;4.47;3.70;;;;;;;;;;5022333;28;20287;-49
2023/06/10 13:34:53;;;;;;;5.85;4.00;;;;;;;;;;5039936;28;20669;-49
2023/06/10 13:37:20;;;;;;;4.25;3.38;;;;;;;;;;5039745;28;20200;-50
2023/06/10 13:39:50;;;;;;;3.40;3.05;;;;;;;;;;5039528;28;20201;-49
2023/06/10 13:42:17;;;;;;;4.53;3.30;;;;;;;;;;5039618;28;20200;-50
2023/06/10 13:44:45;;;;;;;3.90;2.92;;;;;;;;;;5039184;28;20244;-48
2023/06/10 13:47:12;;;;;;;4.30;3.35;;;;;;;;;;5039665;28;20203;-48
2023/06/10 13:49:39;;;;;;;5.10;3.08;;;;;;;;;;5039411;28;20212;-48
2023/06/10 13:52:07;;;;;;;3.45;2.80;;;;;;;;;;5039706;28;20276;-50
2023/06/10 13:54:37;;;;;;;3.45;2.80;;;;;;;;;;5022228;28;20281;-48
2023/06/10 13:57:04;;;;;;;5.05;3.42;;;;;;;;;;5039797;28;20211;-49
2023/06/10 13:59:32;;;;;;;5.47;3.97;;;;;;;;;;5039415;28;20700;-49
2023/06/10 14:02:00;;;;;;;4.70;3.45;;;;;;;;;;5039349;28;20292;-48
2023/06/10 14:04:27;;;;;;;4.22;3.72;;;;;;;;;;5038526;28;20221;-48
2023/06/10 14:06:55;;;;;;;5.65;3.75;;;;;;;;;;5039396;28;20662;-48
2023/06/10 14:09:22;;;;;;;4.35;3.88;;;;;;;;;;5039527;28;20219;-48
2023/06/10 14:11:49;;;;;;;4.43;3.58;;;;;;;;;;5039334;28;20204;-48
2023/06/10 14:14:16;;;;;;;3.80;3.35;;;;;;;;;;5039471;28;20263;-47
2023/06/10 14:16:43;;;;;;;4.13;3.58;;;;;;;;;;5039427;28;20196;-48
2023/06/10 14:19:11;;;;;;;4.35;3.50;;;;;;;;;;5039422;28;20201;-48
2023/06/10 14:21:38;;;;;;;4.13;3.33;;;;;;;;;;5004733;28;20205;-48
2023/06/10 14:24:05;;;;;;;5.28;3.60;;;;;;;;;;5036064;28;20237;-49
2023/06/10 14:26:32;;;;;;;4.32;3.60;;;;;;;;;;5036146;28;20729;-49
2023/06/10 14:29:02;;;;;;;4.15;3.60;;;;;;;;;;5036275;28;20200;-46
2023/06/10 14:31:29;;;;;;;4.88;3.70;;;;;;;;;;5036078;28;20200;-52
2023/06/10 14:33:56;;;;;;;6.32;3.40;;;;;;;;;;5035891;28;20201;-45
2023/06/10 14:36:23;;;;;;;4.07;3.40;;;;;;;;;;5036179;28;20211;-47
2023/06/10 14:38:51;;;;;;;6.22;4.07;;;;;;;;;;5035913;28;20680;-46
2023/06/10 14:41:18;;;;;;;4.57;3.55;;;;;;;;;;5036113;28;20204;-48
2023/06/10 14:43:45;;;;;;;4.82;3.75;;;;;;;;;;5035588;28;20205;-46
2023/06/10 14:46:12;;;;;;;3.70;3.30;;;;;;;;;;5035607;28;20685;-45
2023/06/10 14:48:40;;;;;;;2.95;2.63;;;;;;;;;;5036057;28;20642;-49
2023/06/10 14:51:07;;;;;;;3.95;3.00;;;;;;;;;;5035553;28;20197;-48
2023/06/10 14:53:34;;;;;;;3.85;2.97;;;;;;;;;;5035687;28;20204;-50
2023/06/10 14:56:01;;;;;;;2.58;2.38;;;;;;;;;;5035581;28;20205;-49